createdAt,value
2022-08-20T00:02:41.382Z,100608.00
2022-08-20T00:07:41.391Z,100604.00
2022-08-20T00:12:41.383Z,100598.00
2022-08-20T00:17:41.367Z,100598.00
2022-08-20T00:22:41.391Z,100598.00
2022-08-20T00:27:41.324Z,100598.00
2022-08-20T00:32:43.007Z,100602.00
2022-08-20T00:37:43.315Z,100602.00
2022-08-20T00:42:43.381Z,100602.00
2022-08-20T00:47:51.193Z,100602.00
2022-08-20T00:52:49.836Z,100606.00
2022-08-20T00:58:00.792Z,100606.00
2022-08-20T01:02:53.404Z,100608.00
2022-08-20T01:07:53.599Z,100606.00
2022-08-20T01:12:59.087Z,100608.00
2022-08-20T01:17:58.086Z,100602.00
2022-08-20T01:23:16.646Z,100600.00
2022-08-20T01:28:16.377Z,100602.00
2022-08-20T01:33:16.460Z,100598.00
2022-08-20T01:38:16.428Z,100598.00
2022-08-20T01:43:17.349Z,100602.00
2022-08-20T01:48:18.885Z,100608.00
2022-08-20T01:53:19.698Z,100612.00
2022-08-20T01:58:19.445Z,100620.00
2022-08-20T02:03:19.551Z,100622.00
2022-08-20T02:08:19.420Z,100618.00
2022-08-20T02:13:19.454Z,100620.00
2022-08-20T02:18:20.504Z,100622.00
2022-08-20T02:23:20.419Z,100626.00
2022-08-20T02:28:20.796Z,100628.00
2022-08-20T02:33:20.590Z,100628.00
2022-08-20T02:38:22.492Z,100626.00
2022-08-20T02:43:22.424Z,100624.00
2022-08-20T02:48:22.584Z,100622.00
2022-08-20T02:53:22.505Z,100624.00
2022-08-20T02:58:22.567Z,100624.00
2022-08-20T03:03:23.864Z,100626.00
2022-08-20T03:08:23.557Z,100626.00
2022-08-20T03:13:23.772Z,100626.00
2022-08-20T03:18:23.498Z,100624.00
2022-08-20T03:23:23.443Z,100622.00
2022-08-20T03:28:23.515Z,100620.00
2022-08-20T03:33:23.535Z,100618.00
2022-08-20T03:38:32.924Z,100614.00
2022-08-20T03:43:25.515Z,100612.00
2022-08-20T03:48:25.834Z,100610.00
2022-08-20T03:53:26.405Z,100608.00
2022-08-20T03:58:29.952Z,100606.00
2022-08-20T04:03:28.576Z,100602.00
2022-08-20T04:08:29.059Z,100600.00
2022-08-20T04:13:29.731Z,100608.00
2022-08-20T04:18:30.775Z,100616.00
2022-08-20T04:23:30.820Z,100626.00
2022-08-20T04:28:30.555Z,100628.00
2022-08-20T04:33:35.213Z,100634.00
2022-08-20T04:38:50.522Z,100641.00
2022-08-20T04:43:35.576Z,100647.00
2022-08-20T04:48:37.494Z,100653.00
2022-08-20T04:53:39.478Z,100659.00
2022-08-20T04:58:40.159Z,100661.00
2022-08-20T05:03:40.519Z,100659.00
2022-08-20T05:08:40.555Z,100663.00
2022-08-20T05:13:40.821Z,100665.00
2022-08-20T05:18:40.633Z,100665.00
2022-08-20T05:23:42.447Z,100663.00
2022-08-20T05:28:54.006Z,100661.00
2022-08-20T05:33:44.642Z,100661.00
2022-08-20T05:38:44.641Z,100655.00
2022-08-20T05:43:46.785Z,100655.00
2022-08-20T05:48:48.636Z,100657.00
2022-08-20T05:53:48.571Z,100659.00
2022-08-20T05:58:48.599Z,100659.00
2022-08-20T06:04:16.223Z,100663.00
2022-08-20T06:09:16.710Z,100669.00
2022-08-20T06:14:19.911Z,100673.00
2022-08-20T06:19:24.993Z,100677.00
2022-08-20T06:24:21.593Z,100679.00
2022-08-20T06:29:21.616Z,100683.00
2022-08-20T06:34:21.614Z,100688.00
2022-08-20T06:39:21.708Z,100696.00
2022-08-20T06:44:21.620Z,100700.00
2022-08-20T06:49:21.637Z,100702.00
2022-08-20T06:54:21.694Z,100708.00
2022-08-20T06:59:23.619Z,100708.00
2022-08-20T07:04:24.046Z,100716.00
2022-08-20T07:09:23.751Z,100718.00
2022-08-20T07:14:23.749Z,100722.00
2022-08-20T07:19:23.979Z,100722.00
2022-08-20T07:24:23.655Z,100726.00
2022-08-20T07:29:27.607Z,100726.00
2022-08-20T07:34:27.659Z,100733.00
2022-08-20T07:39:29.940Z,100733.00
2022-08-20T07:44:31.103Z,100737.00
2022-08-20T07:49:31.687Z,100747.00
2022-08-20T07:54:31.764Z,100753.00
2022-08-20T07:59:31.687Z,100755.00
2022-08-20T08:04:31.707Z,100757.00
2022-08-20T08:09:31.757Z,100759.00
2022-08-20T08:14:32.645Z,100761.00
2022-08-20T08:19:35.039Z,100767.00
2022-08-20T08:24:34.683Z,100769.00
2022-08-20T08:29:35.669Z,100771.00
2022-08-20T08:34:35.950Z,100773.00
2022-08-20T08:39:35.827Z,100777.00
2022-08-20T08:44:38.116Z,100778.00
2022-08-20T08:49:38.401Z,100786.00
2022-08-20T08:54:38.729Z,100790.00
2022-08-20T08:59:52.213Z,100803.00
2022-08-20T09:04:40.745Z,100805.00
2022-08-20T09:09:40.818Z,100815.00
2022-08-20T09:14:40.959Z,100820.00
2022-08-20T09:19:40.781Z,100824.00
2022-08-20T09:24:40.741Z,100824.00
2022-08-20T09:29:40.745Z,100828.00
2022-08-20T09:34:41.788Z,100830.00
2022-08-20T09:39:42.558Z,100830.00
2022-08-20T09:44:42.785Z,100832.00
2022-08-20T09:49:42.759Z,100832.00
2022-08-20T09:54:46.640Z,100832.00
2022-08-20T09:59:44.900Z,100834.00
2022-08-20T10:04:44.818Z,100836.00
2022-08-20T10:09:45.879Z,100836.00
2022-08-20T10:14:45.814Z,100838.00
2022-08-20T10:19:45.790Z,100840.00
2022-08-20T10:24:45.780Z,100842.00
2022-08-20T10:29:47.015Z,100842.00
2022-08-20T10:34:46.772Z,100844.00
2022-08-20T10:39:46.920Z,100848.00
2022-08-20T10:44:46.861Z,100850.00
2022-08-20T10:49:46.891Z,100846.00
2022-08-20T10:54:46.810Z,100848.00
2022-08-20T10:59:46.852Z,100848.00
2022-08-20T11:04:46.966Z,100848.00
2022-08-20T11:09:47.008Z,100846.00
2022-08-20T11:14:46.854Z,100848.00
2022-08-20T11:19:46.888Z,100850.00
2022-08-20T11:24:47.148Z,100850.00
2022-08-20T11:29:46.860Z,100844.00
2022-08-20T11:34:46.902Z,100840.00
2022-08-20T11:39:47.105Z,100840.00
2022-08-20T11:44:46.852Z,100838.00
2022-08-20T11:49:46.905Z,100840.00
2022-08-20T11:54:46.949Z,100842.00
2022-08-20T11:59:46.860Z,100840.00
2022-08-20T12:04:46.907Z,100838.00
2022-08-20T12:09:51.156Z,100834.00
2022-08-20T12:14:48.921Z,100832.00
2022-08-20T12:19:48.967Z,100826.00
2022-08-20T12:24:48.889Z,100824.00
2022-08-20T12:29:49.046Z,100824.00
2022-08-20T12:34:48.972Z,100820.00
2022-08-20T12:39:49.063Z,100819.00
2022-08-20T12:44:49.017Z,100820.00
2022-08-20T12:49:48.976Z,100820.00
2022-08-20T12:54:48.900Z,100815.00
2022-08-20T12:59:48.952Z,100813.00
2022-08-20T13:04:49.001Z,100811.00
2022-08-20T13:09:48.930Z,100809.00
2022-08-20T13:14:48.997Z,100805.00
2022-08-20T13:19:49.020Z,100792.00
2022-08-20T13:24:49.025Z,100784.00
2022-08-20T13:29:48.953Z,100777.00
2022-08-20T13:34:49.967Z,100777.00
2022-08-20T13:39:50.133Z,100777.00
2022-08-20T13:44:50.159Z,100777.00
2022-08-20T13:49:50.044Z,100777.00
2022-08-20T13:54:52.968Z,100777.00
2022-08-20T13:59:53.108Z,100775.00
2022-08-20T14:04:53.151Z,100777.00
2022-08-20T14:09:53.514Z,100771.00
2022-08-20T14:14:53.072Z,100767.00
2022-08-20T14:19:52.996Z,100769.00
2022-08-20T14:24:53.044Z,100769.00
2022-08-20T14:29:53.095Z,100767.00
2022-08-20T14:34:53.002Z,100761.00
2022-08-20T14:39:53.077Z,100761.00
2022-08-20T14:44:53.156Z,100759.00
2022-08-20T14:49:53.133Z,100755.00
2022-08-20T14:54:53.045Z,100751.00
2022-08-20T14:59:53.189Z,100753.00
2022-08-20T15:04:54.379Z,100753.00
2022-08-20T15:09:55.101Z,100753.00
2022-08-20T15:14:55.197Z,100751.00
2022-08-20T15:19:55.063Z,100749.00
2022-08-20T15:24:57.760Z,100749.00
2022-08-20T15:29:57.085Z,100749.00
2022-08-20T15:34:57.122Z,100747.00
2022-08-20T15:39:57.227Z,100749.00
2022-08-20T15:44:58.183Z,100753.00
2022-08-20T15:49:58.082Z,100755.00
2022-08-20T15:54:58.098Z,100753.00
2022-08-20T15:59:58.128Z,100747.00
2022-08-20T16:04:58.271Z,100751.00
2022-08-20T16:09:58.801Z,100749.00
2022-08-20T16:14:59.243Z,100751.00
2022-08-20T16:19:59.098Z,100749.00
2022-08-20T16:24:59.140Z,100749.00
2022-08-20T16:29:59.120Z,100745.00
2022-08-20T16:34:59.203Z,100745.00
2022-08-20T16:39:59.181Z,100743.00
2022-08-20T16:44:59.244Z,100743.00
2022-08-20T16:49:59.201Z,100741.00
2022-08-20T16:54:59.129Z,100737.00
2022-08-20T16:59:59.186Z,100733.00
2022-08-20T17:05:00.222Z,100733.00
2022-08-20T17:10:02.407Z,100733.00
2022-08-20T17:15:03.217Z,100731.00
2022-08-20T17:20:03.529Z,100737.00
2022-08-20T17:25:04.158Z,100737.00
2022-08-20T17:30:04.192Z,100741.00
2022-08-20T17:35:04.886Z,100745.00
2022-08-20T17:40:06.187Z,100747.00
2022-08-20T17:45:06.330Z,100751.00
2022-08-20T17:50:06.175Z,100761.00
2022-08-20T17:55:06.600Z,100763.00
2022-08-20T18:00:06.089Z,100761.00
2022-08-20T18:05:06.293Z,100765.00
2022-08-20T18:10:06.227Z,100769.00
2022-08-20T18:15:06.293Z,100775.00
2022-08-20T18:20:06.294Z,100778.00
2022-08-20T18:25:08.366Z,100777.00
2022-08-20T18:30:08.285Z,100778.00
2022-08-20T18:35:08.236Z,100780.00
2022-08-20T18:40:08.440Z,100784.00
2022-08-20T18:45:08.259Z,100788.00
2022-08-20T18:50:16.394Z,100792.00
2022-08-20T18:55:10.313Z,100792.00
2022-08-20T19:00:11.357Z,100792.00
2022-08-20T19:05:11.478Z,100790.00
2022-08-20T19:10:12.928Z,100792.00
2022-08-20T19:15:13.397Z,100801.00
2022-08-20T19:20:13.673Z,100803.00
2022-08-20T19:25:13.252Z,100803.00
2022-08-20T19:30:13.341Z,100803.00
2022-08-20T19:35:13.298Z,100803.00
2022-08-20T19:40:16.335Z,100809.00
2022-08-20T19:45:17.409Z,100813.00
2022-08-20T19:50:17.390Z,100817.00
2022-08-20T19:55:17.299Z,100820.00
2022-08-20T20:00:17.251Z,100824.00
2022-08-20T20:05:17.248Z,100826.00
2022-08-20T20:10:17.286Z,100828.00
2022-08-20T20:15:17.365Z,100824.00
2022-08-20T20:20:17.288Z,100826.00
2022-08-20T20:25:17.836Z,100828.00
2022-08-20T20:30:17.308Z,100834.00
2022-08-20T20:35:17.277Z,100836.00
2022-08-20T20:40:19.393Z,100838.00
2022-08-20T20:45:19.461Z,100836.00
2022-08-20T20:50:19.314Z,100834.00
2022-08-20T20:55:19.406Z,100834.00
2022-08-20T21:00:22.411Z,100832.00
2022-08-20T21:05:22.914Z,100828.00
2022-08-20T21:10:24.309Z,100828.00
2022-08-20T21:15:24.313Z,100826.00
2022-08-20T21:20:24.371Z,100828.00
2022-08-20T21:25:24.459Z,100830.00
2022-08-20T21:30:24.318Z,100830.00
2022-08-20T21:35:24.324Z,100834.00
2022-08-20T21:40:24.465Z,100830.00
2022-08-20T21:45:28.287Z,100838.00
2022-08-20T21:50:28.415Z,100842.00
2022-08-20T21:55:28.337Z,100842.00
2022-08-20T22:00:28.332Z,100840.00
2022-08-20T22:05:28.328Z,100844.00
2022-08-20T22:10:28.350Z,100848.00
2022-08-20T22:15:28.556Z,100846.00
2022-08-20T22:20:28.367Z,100844.00
2022-08-20T22:25:28.405Z,100844.00
2022-08-20T22:30:28.464Z,100844.00
2022-08-20T22:35:28.470Z,100846.00
2022-08-20T22:40:28.415Z,100852.00
2022-08-20T22:45:28.449Z,100854.00
2022-08-20T22:50:28.487Z,100852.00
2022-08-20T22:55:28.410Z,100852.00
2022-08-20T23:00:28.401Z,100848.00
2022-08-20T23:05:28.487Z,100852.00
2022-08-20T23:10:28.430Z,100852.00
2022-08-20T23:15:28.459Z,100850.00
2022-08-20T23:20:28.524Z,100850.00
2022-08-20T23:25:28.429Z,100848.00
2022-08-20T23:30:31.435Z,100844.00
2022-08-20T23:35:32.912Z,100844.00
2022-08-20T23:40:36.504Z,100840.00
2022-08-20T23:45:39.883Z,100836.00
2022-08-20T23:50:39.018Z,100834.00
2022-08-20T23:55:39.590Z,100830.00
